createdAt,value
2022-12-11T02:51:36.595Z,41.55
2022-12-11T03:00:11.157Z,39.90
2022-12-11T06:45:13.543Z,48.72
2022-12-11T06:59:44.343Z,53.10
2022-12-11T07:02:51.460Z,52.78
2022-12-11T07:05:48.455Z,49.55
2022-12-11T07:08:42.661Z,48.97
2022-12-11T07:11:44.063Z,49.83
2022-12-11T07:14:43.572Z,45.63
2022-12-11T07:17:39.269Z,48.65
2022-12-11T07:20:45.689Z,50.33
2022-12-11T07:23:56.570Z,47.05
2022-12-11T07:26:57.233Z,47.35
2022-12-11T07:29:48.624Z,47.10
2022-12-11T07:32:51.429Z,47.42
2022-12-11T07:35:49.782Z,49.08
2022-12-11T07:38:46.454Z,47.10
2022-12-11T07:41:52.893Z,47.83
2022-12-11T07:45:17.943Z,48.80
2022-12-11T07:52:10.972Z,44.63
2022-12-11T07:55:07.144Z,45.47
2022-12-11T07:58:34.987Z,45.58
2022-12-11T08:04:46.356Z,45.83
2022-12-11T08:11:25.265Z,42.20
2022-12-11T08:14:41.467Z,44.47
2022-12-11T08:17:52.122Z,45.42
2022-12-11T08:21:00.130Z,44.55
2022-12-11T08:24:00.043Z,45.00
2022-12-11T08:27:00.723Z,45.92
2022-12-11T08:29:56.713Z,47.50
2022-12-11T08:32:45.414Z,46.70
2022-12-11T08:35:50.705Z,52.65
2022-12-11T08:38:56.101Z,54.28
2022-12-11T08:42:11.248Z,51.25
2022-12-11T08:45:27.162Z,48.88
2022-12-11T08:48:40.062Z,52.50
2022-12-11T08:51:36.054Z,50.40
2022-12-11T08:54:32.165Z,52.03
2022-12-11T08:57:56.554Z,52.08
2022-12-11T09:07:16.507Z,54.13
2022-12-11T09:10:16.412Z,52.70
2022-12-11T09:13:54.591Z,51.85
2022-12-11T09:16:42.268Z,54.80
2022-12-11T09:19:32.525Z,55.47
2022-12-11T09:22:23.589Z,53.10
2022-12-11T09:25:18.838Z,54.60
2022-12-11T09:28:18.025Z,56.15
2022-12-11T09:31:42.741Z,52.85
2022-12-11T09:34:33.942Z,51.55
2022-12-11T09:37:38.722Z,54.22
2022-12-11T09:41:15.054Z,53.58
2022-12-11T09:45:02.750Z,52.08
2022-12-11T09:48:46.218Z,49.85
2022-12-11T09:51:56.010Z,51.30
2022-12-11T09:55:03.578Z,50.25
2022-12-11T09:59:01.867Z,52.63
2022-12-11T10:02:13.915Z,47.47
2022-12-11T10:06:01.049Z,48.67
2022-12-11T10:10:07.594Z,48.53
2022-12-11T10:13:37.427Z,49.05
2022-12-11T10:17:03.102Z,50.03
2022-12-11T10:20:41.409Z,51.42
2022-12-11T10:31:31.436Z,51.75
2022-12-11T10:35:10.368Z,53.25
2022-12-11T10:42:08.184Z,54.08
2022-12-11T10:51:45.231Z,56.75
2022-12-11T10:54:46.199Z,54.70
2022-12-11T10:57:43.176Z,55.00
2022-12-11T11:00:38.134Z,58.33
2022-12-11T11:03:30.156Z,55.97
2022-12-11T11:06:38.603Z,65.68
2022-12-11T11:10:15.362Z,120.57
2022-12-11T11:13:09.802Z,74.18
2022-12-11T11:16:33.723Z,57.63
2022-12-11T11:22:53.478Z,72.53
2022-12-11T11:33:03.204Z,53.35
2022-12-11T11:36:09.498Z,51.78
2022-12-11T11:39:23.351Z,51.60
2022-12-11T11:42:34.435Z,49.58
2022-12-11T11:45:40.615Z,48.53
2022-12-11T11:48:59.364Z,47.28
2022-12-11T11:56:39.543Z,41.33
2022-12-11T12:05:12.299Z,33.38
2022-12-11T12:08:04.479Z,30.40
2022-12-11T12:11:28.899Z,28.98
2022-12-11T12:14:55.513Z,32.72
2022-12-11T12:17:59.008Z,30.48
2022-12-11T12:21:13.493Z,30.60
2022-12-11T12:27:52.206Z,31.20
2022-12-11T12:35:16.123Z,29.83
2022-12-11T12:38:26.680Z,31.33
2022-12-11T12:42:27.082Z,30.08
2022-12-11T12:45:44.748Z,28.48
2022-12-11T12:48:37.954Z,31.70
2022-12-11T12:51:40.488Z,31.65
2022-12-11T12:54:38.223Z,34.45
2022-12-11T12:58:27.740Z,30.27
2022-12-11T13:01:14.442Z,35.95
2022-12-11T13:04:20.734Z,25.63
2022-12-11T13:07:56.845Z,27.92
2022-12-11T13:11:10.138Z,26.05
2022-12-11T13:27:53.957Z,30.42
2022-12-11T14:10:56.620Z,27.65
2022-12-11T14:13:48.763Z,30.98
2022-12-11T14:26:27.916Z,31.80
2022-12-11T14:56:26.341Z,25.77
2022-12-11T15:24:11.006Z,26.02
2022-12-11T15:27:25.396Z,24.98
2022-12-11T15:33:13.983Z,27.20
2022-12-11T15:36:27.711Z,28.02
2022-12-11T15:39:53.654Z,30.65
2022-12-11T15:42:44.348Z,26.45
2022-12-11T15:45:32.941Z,28.95
2022-12-11T15:48:21.180Z,29.23
2022-12-11T15:51:11.169Z,30.23
2022-12-11T15:54:02.128Z,29.52
2022-12-11T15:56:56.841Z,28.50
2022-12-11T15:59:52.013Z,27.63
2022-12-11T16:02:42.403Z,28.00
2022-12-11T16:05:34.965Z,28.00
2022-12-11T16:08:25.156Z,28.25
2022-12-11T16:11:16.122Z,28.10
2022-12-11T16:14:05.063Z,30.00
2022-12-11T16:16:53.561Z,26.02
2022-12-11T16:19:46.144Z,26.98
2022-12-11T16:22:35.840Z,26.63
2022-12-11T16:25:24.954Z,30.98
2022-12-11T16:28:16.553Z,28.50
2022-12-11T16:31:04.562Z,26.52
2022-12-11T16:33:53.302Z,29.70
2022-12-11T16:36:41.825Z,24.95
2022-12-11T16:39:29.728Z,18.95
2022-12-11T16:42:17.991Z,30.23
2022-12-11T16:45:15.836Z,21.02
2022-12-11T16:56:16.926Z,21.83
2022-12-11T16:59:05.829Z,24.08
2022-12-11T17:01:59.390Z,23.70
2022-12-11T17:04:53.982Z,22.20
2022-12-11T17:07:45.634Z,21.85
2022-12-11T17:10:33.799Z,22.17
2022-12-11T17:13:22.165Z,23.42
2022-12-11T17:16:13.733Z,25.42
2022-12-11T17:19:03.751Z,24.50
2022-12-11T17:21:57.279Z,21.92
2022-12-11T17:24:47.719Z,21.70
2022-12-11T17:27:39.185Z,21.85
2022-12-11T17:30:27.592Z,20.52
2022-12-11T17:33:16.620Z,22.35
2022-12-11T17:36:07.157Z,23.58
2022-12-11T17:38:58.081Z,25.27
2022-12-11T17:41:49.837Z,25.55
2022-12-11T17:44:38.598Z,25.40
2022-12-11T17:47:30.363Z,25.27
2022-12-11T17:50:21.520Z,24.25
2022-12-11T17:53:15.153Z,22.67
2022-12-11T17:56:07.085Z,23.55
2022-12-11T17:58:55.223Z,33.22
2022-12-11T18:01:43.385Z,33.72
2022-12-11T18:04:32.044Z,27.88
2022-12-11T18:07:24.912Z,30.38
2022-12-11T18:10:16.536Z,28.13
2022-12-11T18:13:08.033Z,28.90
2022-12-11T18:16:14.089Z,46.88
2022-12-11T18:19:03.307Z,35.47
2022-12-11T18:21:55.110Z,36.42
2022-12-11T18:24:45.693Z,37.80
2022-12-11T18:27:45.108Z,37.45
2022-12-11T18:30:33.453Z,36.65
2022-12-11T18:33:24.256Z,37.72
2022-12-11T18:36:24.204Z,38.65
2022-12-11T18:39:13.350Z,38.60
2022-12-11T18:42:32.352Z,42.17
2022-12-11T18:48:10.404Z,40.20
2022-12-11T18:51:07.933Z,41.60
2022-12-11T18:53:56.168Z,41.80
2022-12-11T18:56:52.172Z,40.17
2022-12-11T18:59:41.151Z,42.38
2022-12-11T19:02:38.929Z,41.17
2022-12-11T19:05:27.837Z,43.30
2022-12-11T19:08:24.436Z,44.20
2022-12-11T19:11:24.960Z,46.20
2022-12-11T19:17:43.691Z,45.10
2022-12-11T19:20:53.648Z,47.42
2022-12-11T19:24:14.149Z,46.13
2022-12-11T19:27:17.085Z,40.65
2022-12-11T19:30:42.850Z,41.95
2022-12-11T19:34:19.132Z,43.85
2022-12-11T19:36:59.687Z,44.70
2022-12-11T19:40:28.079Z,44.85
2022-12-11T19:43:27.644Z,46.58
2022-12-11T19:46:26.951Z,46.90
2022-12-11T19:49:19.799Z,46.55
2022-12-11T19:52:11.692Z,39.75
2022-12-11T19:55:16.308Z,52.85
2022-12-11T19:58:04.414Z,53.08
2022-12-11T20:00:52.555Z,53.20
2022-12-11T20:03:43.206Z,54.70
2022-12-11T20:06:37.082Z,53.33
2022-12-11T20:09:25.368Z,53.42
2022-12-11T20:12:13.463Z,52.63
2022-12-11T20:15:01.766Z,53.10
2022-12-11T20:18:04.088Z,49.53
2022-12-11T20:20:52.666Z,52.53
2022-12-11T20:23:41.349Z,51.88
2022-12-11T20:26:32.070Z,50.55
2022-12-11T20:29:26.960Z,52.47
2022-12-11T20:32:15.691Z,48.00
2022-12-11T20:35:10.616Z,51.67
2022-12-11T20:38:01.916Z,47.70
2022-12-11T20:40:59.817Z,51.10
2022-12-11T20:44:01.449Z,50.88
2022-12-11T20:46:58.811Z,50.53
2022-12-11T20:49:49.082Z,50.50
2022-12-11T20:52:37.969Z,49.38
2022-12-11T20:55:26.367Z,50.70
2022-12-11T20:58:19.580Z,47.53
2022-12-11T21:01:08.440Z,50.15
2022-12-11T21:04:02.022Z,50.00
2022-12-11T21:07:05.477Z,47.55
2022-12-11T21:09:53.650Z,48.55
2022-12-11T21:12:42.475Z,47.28
2022-12-11T21:15:33.104Z,50.70
2022-12-11T21:18:21.940Z,48.63
2022-12-11T21:21:14.183Z,53.90
2022-12-11T21:24:03.852Z,54.30
2022-12-11T21:26:55.365Z,49.53
2022-12-11T21:29:46.327Z,50.45
2022-12-11T21:32:35.561Z,51.83
2022-12-11T21:35:30.667Z,50.15
2022-12-11T21:38:19.962Z,51.15
2022-12-11T21:41:23.469Z,50.83
2022-12-11T21:45:25.906Z,50.50
2022-12-11T21:47:27.972Z,51.17
2022-12-11T21:50:16.597Z,54.33
2022-12-11T21:53:04.745Z,53.85
2022-12-11T21:55:53.491Z,55.10
2022-12-11T21:58:43.493Z,51.10
2022-12-11T22:01:41.086Z,52.90
2022-12-11T22:04:34.548Z,52.50
2022-12-11T22:07:22.765Z,55.40
2022-12-11T22:10:11.211Z,54.17
2022-12-11T22:13:01.924Z,56.58
2022-12-11T22:15:52.226Z,54.08
2022-12-11T22:18:40.264Z,53.08
2022-12-11T22:21:28.486Z,50.45
2022-12-11T22:24:16.469Z,49.30
2022-12-11T22:27:04.801Z,53.28
2022-12-11T22:29:53.105Z,53.60
2022-12-11T22:32:41.675Z,51.83
2022-12-11T22:35:29.664Z,50.22
2022-12-11T22:38:17.771Z,49.50
2022-12-11T22:41:32.002Z,50.03
2022-12-11T22:47:11.759Z,50.33
2022-12-11T22:50:02.044Z,52.30
2022-12-11T22:52:50.265Z,51.90
2022-12-11T22:55:40.103Z,51.60
2022-12-11T22:58:28.260Z,54.88
2022-12-11T23:01:22.633Z,57.50
2022-12-11T23:04:11.140Z,52.53
2022-12-11T23:06:59.387Z,55.15
2022-12-11T23:09:47.799Z,57.47
2022-12-11T23:12:37.357Z,54.67
2022-12-11T23:15:26.018Z,57.97
2022-12-11T23:18:14.089Z,55.78
2022-12-11T23:21:02.898Z,57.20
2022-12-11T23:23:51.259Z,55.00
2022-12-11T23:26:40.137Z,56.10
2022-12-11T23:29:28.448Z,53.88
2022-12-11T23:32:16.473Z,55.13
2022-12-11T23:35:08.815Z,56.55
2022-12-11T23:37:57.063Z,54.00
2022-12-11T23:40:45.051Z,54.05
2022-12-11T23:43:35.529Z,56.35
2022-12-11T23:46:24.780Z,54.20
2022-12-11T23:49:13.112Z,54.05
2022-12-11T23:52:01.123Z,52.15
2022-12-11T23:54:56.059Z,49.45
2022-12-11T23:57:46.396Z,51.83
